createdAt,value
2024-04-09T00:01:21.978Z,96213.31
2024-04-09T00:03:49.222Z,96212.47
2024-04-09T00:06:16.562Z,96203.75
2024-04-09T00:08:46.649Z,96202.94
2024-04-09T00:11:24.023Z,96200.47
2024-04-09T00:13:52.489Z,96198.47
2024-04-09T00:16:26.815Z,96196.31
2024-04-09T00:18:56.529Z,96195.13
2024-04-09T00:21:24.753Z,96199.81
2024-04-09T00:23:52.099Z,96201.34
2024-04-09T00:26:18.757Z,96201.34
2024-04-09T00:28:45.765Z,96202.03
2024-04-09T00:31:12.376Z,96200.72
2024-04-09T00:33:39.846Z,96200.69
2024-04-09T00:36:06.982Z,96203.19
2024-04-09T00:38:34.314Z,96188.25
2024-04-09T00:41:00.904Z,96187.06
2024-04-09T00:43:27.702Z,96187.53
2024-04-09T00:45:56.774Z,96192.28
2024-04-09T00:48:23.858Z,96187.03
2024-04-09T00:50:52.171Z,96193.41
2024-04-09T00:53:19.995Z,96192.34
2024-04-09T00:55:50.774Z,96192.59
2024-04-09T00:58:19.375Z,96193.09
2024-04-09T01:00:46.132Z,96180.66
2024-04-09T01:03:13.801Z,96177.81
2024-04-09T01:05:40.869Z,96181.34
2024-04-09T01:08:07.498Z,96181.41
2024-04-09T01:10:34.115Z,96185.41
2024-04-09T01:13:00.769Z,96184.13
2024-04-09T01:15:27.578Z,96173.94
2024-04-09T01:17:54.273Z,96175.06
2024-04-09T01:20:21.994Z,96175.16
2024-04-09T01:22:48.594Z,96178.44
2024-04-09T01:25:16.037Z,96176.47
2024-04-09T01:27:42.802Z,96179.72
2024-04-09T01:30:10.769Z,96184.34
2024-04-09T01:32:40.978Z,96180.69
2024-04-09T01:35:08.269Z,96181.84
2024-04-09T01:37:35.494Z,96173.44
2024-04-09T01:40:03.269Z,96176.22
2024-04-09T01:42:30.097Z,96180.84
2024-04-09T01:44:56.936Z,96174.69
2024-04-09T01:47:23.624Z,96181.44
2024-04-09T01:49:50.209Z,96183.97
2024-04-09T01:52:16.972Z,96191.19
2024-04-09T01:54:48.557Z,96191.19
2024-04-09T01:57:15.752Z,96188.47
2024-04-09T01:59:42.707Z,96191.78
2024-04-09T02:02:10.385Z,96200.72
2024-04-09T02:04:37.052Z,96197.84
2024-04-09T02:07:03.934Z,96201.09
2024-04-09T02:09:30.517Z,96208.13
2024-04-09T02:11:57.160Z,96203.91
2024-04-09T02:14:24.071Z,96205.78
2024-04-09T02:16:51.609Z,96207.66
2024-04-09T02:19:18.185Z,96192.22
2024-04-09T02:21:44.764Z,96194.16
2024-04-09T02:24:11.447Z,96191.22
2024-04-09T02:26:38.037Z,96198.91
2024-04-09T02:29:04.577Z,96203.84
2024-04-09T02:31:31.216Z,96198.13
2024-04-09T02:33:57.981Z,96193.16
2024-04-09T02:36:24.639Z,96190.25
2024-04-09T02:38:51.286Z,96200.34
2024-04-09T02:41:18.489Z,96195.59
2024-04-09T02:43:45.429Z,96198.31
2024-04-09T02:46:11.994Z,96205.69
2024-04-09T02:48:38.662Z,96219.81
2024-04-09T02:51:06.581Z,96225.94
2024-04-09T02:53:36.461Z,96226.94
2024-04-09T02:56:08.354Z,96223.88
2024-04-09T02:58:36.136Z,96211.84
2024-04-09T03:01:08.153Z,96222.78
2024-04-09T03:03:36.552Z,96223.19
2024-04-09T03:06:08.703Z,96228.22
2024-04-09T03:08:36.033Z,96235.81
2024-04-09T03:11:02.951Z,96242.03
2024-04-09T03:13:29.543Z,96241.56
2024-04-09T03:15:56.672Z,96243.13
2024-04-09T03:18:23.395Z,96234.91
2024-04-09T03:20:58.878Z,96242.84
2024-04-09T03:23:25.531Z,96240.91
2024-04-09T03:25:52.080Z,96242.56
2024-04-09T03:28:18.623Z,96250.97
2024-04-09T03:30:45.246Z,96257.00
2024-04-09T03:33:11.907Z,96264.13
2024-04-09T03:35:38.721Z,96258.84
2024-04-09T03:38:05.278Z,96259.81
2024-04-09T03:40:33.167Z,96266.38
2024-04-09T03:42:59.795Z,96258.41
2024-04-09T03:45:27.438Z,96267.22
2024-04-09T03:47:54.152Z,96265.91
2024-04-09T03:50:20.776Z,96271.00
2024-04-09T03:52:47.420Z,96270.25
2024-04-09T03:55:14.059Z,96269.69
2024-04-09T03:57:41.751Z,96282.09
2024-04-09T04:00:13.188Z,96294.72
2024-04-09T04:02:40.528Z,96296.34
2024-04-09T04:05:07.322Z,96303.28
2024-04-09T04:07:33.887Z,96301.22
2024-04-09T04:10:00.516Z,96311.06
2024-04-09T04:12:27.184Z,96302.88
2024-04-09T04:14:53.814Z,96296.31
2024-04-09T04:17:20.607Z,96304.38
2024-04-09T04:19:47.294Z,96312.25
2024-04-09T04:22:14.319Z,96331.06
2024-04-09T04:24:41.097Z,96338.47
2024-04-09T04:27:08.273Z,96338.94
2024-04-09T04:29:35.255Z,96344.84
2024-04-09T04:32:01.813Z,96354.19
2024-04-09T04:34:28.534Z,96362.69
2024-04-09T04:36:55.276Z,96361.38
2024-04-09T04:39:22.090Z,96378.72
2024-04-09T04:41:48.699Z,96391.84
2024-04-09T04:44:15.327Z,96406.63
2024-04-09T04:46:42.261Z,96399.34
2024-04-09T04:49:09.045Z,96401.25
2024-04-09T04:51:35.677Z,96403.59
2024-04-09T04:54:02.415Z,96402.25
2024-04-09T04:56:29.027Z,96404.50
2024-04-09T04:58:55.640Z,96407.31
2024-04-09T05:01:22.288Z,96429.84
2024-04-09T05:03:49.014Z,96432.53
2024-04-09T05:06:15.647Z,96432.34
2024-04-09T05:08:42.314Z,96432.03
2024-04-09T05:11:12.035Z,96441.78
2024-04-09T05:13:38.649Z,96451.59
2024-04-09T05:16:05.442Z,96449.81
2024-04-09T05:18:32.273Z,96457.00
2024-04-09T05:20:59.085Z,96457.78
2024-04-09T05:23:25.709Z,96461.75
2024-04-09T05:25:52.455Z,96480.75
2024-04-09T05:28:19.009Z,96477.34
2024-04-09T05:30:45.772Z,96478.13
2024-04-09T05:33:12.525Z,96485.31
2024-04-09T05:35:39.168Z,96485.59
2024-04-09T05:38:06.058Z,96498.44
2024-04-09T05:40:35.037Z,96504.41
2024-04-09T05:43:01.607Z,96512.38
2024-04-09T05:45:28.231Z,96519.38
2024-04-09T05:47:55.832Z,96515.94
2024-04-09T05:50:22.500Z,96520.88
2024-04-09T05:52:49.058Z,96510.25
2024-04-09T05:55:15.792Z,96524.69
2024-04-09T05:57:43.264Z,96532.69
2024-04-09T06:00:16.126Z,96536.63
2024-04-09T06:02:47.172Z,96533.19
2024-04-09T06:05:17.297Z,96527.94
2024-04-09T06:07:45.665Z,96547.31
2024-04-09T06:10:15.589Z,96557.22
2024-04-09T06:12:42.574Z,96560.97
2024-04-09T06:15:09.299Z,96558.31
2024-04-09T06:17:36.050Z,96558.63
2024-04-09T06:20:03.171Z,96565.69
2024-04-09T06:22:29.791Z,96570.25
2024-04-09T06:24:56.376Z,96567.31
2024-04-09T06:27:23.162Z,96579.25
2024-04-09T06:29:49.794Z,96580.00
2024-04-09T06:32:16.486Z,96595.41
2024-04-09T06:34:43.674Z,96592.63
2024-04-09T06:37:10.524Z,96622.41
2024-04-09T06:39:37.496Z,96614.00
2024-04-09T06:42:04.939Z,96605.41
2024-04-09T06:44:32.698Z,96603.28
2024-04-09T06:46:59.707Z,96618.59
2024-04-09T06:49:26.614Z,96614.47
2024-04-09T06:51:53.225Z,96629.19
2024-04-09T06:54:19.935Z,96625.13
2024-04-09T06:56:46.572Z,96630.97
2024-04-09T06:59:13.154Z,96630.06
2024-04-09T07:01:39.930Z,96630.06
2024-04-09T07:04:06.647Z,96635.88
2024-04-09T07:06:33.504Z,96638.66
2024-04-09T07:09:04.312Z,96670.19
2024-04-09T07:11:31.004Z,96673.28
2024-04-09T07:13:57.878Z,96677.25
2024-04-09T07:16:24.915Z,96687.03
2024-04-09T07:18:51.695Z,96686.56
2024-04-09T07:21:19.243Z,96695.19
2024-04-09T07:23:47.322Z,96698.03
2024-04-09T07:26:14.983Z,96706.03
2024-04-09T07:28:41.634Z,96718.63
2024-04-09T07:31:09.583Z,96736.47
2024-04-09T07:33:36.505Z,96746.66
2024-04-09T07:36:04.541Z,96749.91
2024-04-09T07:38:31.543Z,96772.00
2024-04-09T07:40:58.140Z,96774.72
2024-04-09T07:43:24.779Z,96776.75
2024-04-09T07:45:54.794Z,96813.19
2024-04-09T07:48:22.487Z,96821.63
2024-04-09T07:50:49.342Z,96821.91
2024-04-09T07:53:16.946Z,96823.00
2024-04-09T07:55:43.548Z,96824.31
2024-04-09T07:58:10.801Z,96849.84
2024-04-09T08:00:38.073Z,96855.50
2024-04-09T08:03:05.385Z,96848.97
2024-04-09T08:05:32.751Z,96864.44
2024-04-09T08:07:59.834Z,96870.16
2024-04-09T08:10:26.888Z,96878.81
2024-04-09T08:12:58.788Z,96878.28
2024-04-09T08:15:25.479Z,96879.66
2024-04-09T08:17:52.303Z,96888.06
2024-04-09T08:20:19.176Z,96895.34
2024-04-09T08:22:49.206Z,96909.72
2024-04-09T08:25:16.910Z,96928.13
2024-04-09T08:27:43.680Z,96936.34
2024-04-09T08:30:13.816Z,96948.53
2024-04-09T08:32:41.751Z,96937.16
2024-04-09T08:35:08.808Z,96948.41
2024-04-09T08:37:35.529Z,96973.41
2024-04-09T08:40:02.806Z,96972.66
2024-04-09T08:42:29.569Z,96980.09
2024-04-09T08:44:58.745Z,96990.94
2024-04-09T08:47:25.859Z,96999.59
2024-04-09T08:50:00.379Z,97007.16
2024-04-09T08:52:30.502Z,97012.31
2024-04-09T08:54:57.237Z,97011.25
2024-04-09T08:57:23.970Z,97024.03
2024-04-09T08:59:51.268Z,97017.16
2024-04-09T09:02:18.316Z,97009.75
2024-04-09T09:04:46.809Z,97019.19
2024-04-09T09:07:18.358Z,97010.72
2024-04-09T09:09:46.021Z,97023.31
2024-04-09T09:12:13.108Z,97038.59
2024-04-09T09:14:39.955Z,97041.44
2024-04-09T09:17:08.430Z,97053.56
2024-04-09T09:19:35.591Z,97064.94
2024-04-09T09:22:05.864Z,97040.25
2024-04-09T09:24:32.708Z,97041.56
2024-04-09T09:27:03.858Z,97042.63
2024-04-09T09:29:30.979Z,97053.03
2024-04-09T09:31:59.346Z,97072.19
2024-04-09T09:34:38.664Z,97059.00
2024-04-09T09:37:11.354Z,97065.03
2024-04-09T09:39:42.092Z,97072.25
2024-04-09T09:42:12.178Z,97076.09
2024-04-09T09:44:43.526Z,97078.78
2024-04-09T09:47:10.171Z,97092.97
2024-04-09T09:49:36.987Z,97095.97
2024-04-09T09:52:04.469Z,97100.13
2024-04-09T09:54:31.269Z,97105.94
2024-04-09T09:57:05.376Z,97130.53
2024-04-09T09:59:37.836Z,97138.31
2024-04-09T10:02:06.445Z,97151.16
2024-04-09T10:04:33.284Z,97147.47
2024-04-09T10:07:04.816Z,97165.44
2024-04-09T10:09:53.275Z,97161.03
2024-04-09T10:12:24.865Z,97168.22
2024-04-09T10:15:10.784Z,97158.16
2024-04-09T10:18:05.052Z,97165.63
2024-04-09T10:20:37.054Z,97172.16
2024-04-09T10:23:08.277Z,97174.78
2024-04-09T10:25:42.941Z,97166.53
2024-04-09T10:28:11.873Z,97171.56
2024-04-09T10:30:41.222Z,97178.94
2024-04-09T10:33:10.151Z,97168.69
2024-04-09T10:35:37.346Z,97175.66
2024-04-09T10:38:07.870Z,97172.16
2024-04-09T10:40:36.153Z,97189.19
2024-04-09T10:43:07.245Z,97184.81
2024-04-09T10:45:34.337Z,97193.56
2024-04-09T10:48:03.126Z,97206.44
2024-04-09T10:50:29.879Z,97199.06
2024-04-09T10:52:56.593Z,97202.53
2024-04-09T10:55:23.302Z,97203.97
2024-04-09T10:57:54.280Z,97206.53
2024-04-09T11:00:22.974Z,97213.22
2024-04-09T11:02:50.196Z,97221.66
2024-04-09T11:05:18.987Z,97228.97
2024-04-09T11:07:48.189Z,97224.19
2024-04-09T11:10:20.487Z,97207.50
2024-04-09T11:12:54.527Z,97237.94
2024-04-09T11:15:22.486Z,97245.03
2024-04-09T11:17:49.404Z,97251.44
2024-04-09T11:20:19.628Z,97241.91
2024-04-09T11:22:47.970Z,97231.78
2024-04-09T11:25:18.539Z,97234.28
2024-04-09T11:27:51.605Z,97238.44
2024-04-09T11:30:26.107Z,97246.16
2024-04-09T11:32:56.811Z,97262.25
2024-04-09T11:35:25.143Z,97252.06
2024-04-09T11:37:53.654Z,97254.03
2024-04-09T11:40:21.427Z,97261.75
2024-04-09T11:42:52.820Z,97275.50
2024-04-09T11:45:23.725Z,97268.91
2024-04-09T11:47:51.056Z,97290.50
2024-04-09T11:50:18.682Z,97277.13
2024-04-09T11:52:46.365Z,97284.22
2024-04-09T11:55:15.118Z,97285.50
2024-04-09T11:57:44.695Z,97305.59
2024-04-09T12:00:14.872Z,97304.81
2024-04-09T12:02:45.151Z,97304.25
2024-04-09T12:05:13.686Z,97304.81
2024-04-09T12:07:41.356Z,97293.09
2024-04-09T12:10:09.239Z,97312.22
2024-04-09T12:12:36.747Z,97310.06
2024-04-09T12:15:06.809Z,97321.53
2024-04-09T12:17:33.983Z,97330.97
2024-04-09T12:20:00.706Z,97328.38
2024-04-09T12:22:29.833Z,97327.03
2024-04-09T12:24:59.956Z,97324.31
2024-04-09T12:27:26.770Z,97323.50
2024-04-09T12:29:54.095Z,97311.97
2024-04-09T12:32:21.553Z,97320.56
2024-04-09T12:34:50.168Z,97327.19
2024-04-09T12:37:17.163Z,97324.66
2024-04-09T12:39:43.870Z,97309.19
2024-04-09T12:42:10.886Z,97287.38
2024-04-09T12:44:37.554Z,97297.63
2024-04-09T12:47:05.289Z,97295.00
2024-04-09T12:49:41.852Z,97307.56
2024-04-09T12:52:12.694Z,97316.81
2024-04-09T12:54:39.611Z,97316.16
2024-04-09T12:57:06.522Z,97328.25
2024-04-09T12:59:47.863Z,97322.25
2024-04-09T13:02:22.808Z,97333.03
2024-04-09T13:04:50.642Z,97326.06
2024-04-09T13:07:17.596Z,97331.81
2024-04-09T13:09:44.600Z,97307.19
2024-04-09T13:12:11.384Z,97302.03
2024-04-09T13:14:38.029Z,97318.63
2024-04-09T13:17:08.173Z,97321.13
2024-04-09T13:19:36.612Z,97323.72
2024-04-09T13:22:04.005Z,97319.78
2024-04-09T13:24:31.037Z,97328.56
2024-04-09T13:26:57.788Z,97335.41
2024-04-09T13:29:25.563Z,97323.22
2024-04-09T13:31:52.608Z,97319.28
2024-04-09T13:34:22.889Z,97323.31
2024-04-09T13:36:50.480Z,97319.63
2024-04-09T13:39:17.181Z,97324.78
2024-04-09T13:41:43.877Z,97329.72
2024-04-09T13:44:10.593Z,97337.84
2024-04-09T13:46:37.217Z,97335.63
2024-04-09T13:49:04.264Z,97340.34
2024-04-09T13:51:31.102Z,97330.72
2024-04-09T13:53:57.854Z,97330.38
2024-04-09T13:56:24.508Z,97330.88
2024-04-09T13:58:51.164Z,97322.19
2024-04-09T14:01:17.907Z,97340.44
2024-04-09T14:03:44.707Z,97337.09
2024-04-09T14:06:11.717Z,97348.63
2024-04-09T14:08:38.867Z,97346.09
2024-04-09T14:11:05.808Z,97346.44
2024-04-09T14:13:33.137Z,97354.31
2024-04-09T14:16:00.057Z,97353.97
2024-04-09T14:18:31.388Z,97358.13
2024-04-09T14:20:59.880Z,97357.56
2024-04-09T14:23:26.709Z,97359.28
2024-04-09T14:25:53.528Z,97373.38
2024-04-09T14:28:20.221Z,97375.50
2024-04-09T14:30:46.932Z,97376.19
2024-04-09T14:33:14.426Z,97374.13
2024-04-09T14:35:44.366Z,97382.97
2024-04-09T14:38:11.138Z,97391.25
2024-04-09T14:40:37.874Z,97387.44
2024-04-09T14:43:05.050Z,97372.69
2024-04-09T14:45:31.912Z,97387.00
2024-04-09T14:47:58.833Z,97382.13
2024-04-09T14:50:26.266Z,97385.56
2024-04-09T14:52:53.177Z,97383.31
2024-04-09T14:55:19.846Z,97383.56
2024-04-09T14:57:46.621Z,97380.81
2024-04-09T15:00:13.943Z,97390.78
2024-04-09T15:02:40.877Z,97384.44
2024-04-09T15:05:07.772Z,97379.59
2024-04-09T15:07:35.667Z,97390.16
2024-04-09T15:10:02.532Z,97383.31
2024-04-09T15:12:29.173Z,97385.06
2024-04-09T15:14:55.993Z,97382.66
2024-04-09T15:17:23.715Z,97383.97
2024-04-09T15:19:52.473Z,97372.72
2024-04-09T15:22:20.706Z,97382.97
2024-04-09T15:24:47.293Z,97388.88
2024-04-09T15:27:13.925Z,97374.84
2024-04-09T15:29:41.641Z,97376.53
2024-04-09T15:32:08.476Z,97376.06
2024-04-09T15:34:35.306Z,97375.22
2024-04-09T15:37:04.047Z,97370.66
2024-04-09T15:39:31.239Z,97369.53
2024-04-09T15:41:59.560Z,97373.38
2024-04-09T15:44:26.965Z,97386.69
2024-04-09T15:46:53.693Z,97396.72
2024-04-09T15:49:20.455Z,97411.47
2024-04-09T15:51:47.115Z,97406.78
2024-04-09T15:54:15.304Z,97400.69
2024-04-09T15:56:42.352Z,97407.06
2024-04-09T15:59:09.005Z,97407.28
2024-04-09T16:01:38.152Z,97401.81
2024-04-09T16:04:05.031Z,97405.00
2024-04-09T16:06:31.957Z,97399.84
2024-04-09T16:08:58.567Z,97407.66
2024-04-09T16:11:25.401Z,97407.88
2024-04-09T16:13:52.164Z,97405.91
2024-04-09T16:16:18.857Z,97403.69
2024-04-09T16:18:47.752Z,97410.25
2024-04-09T16:21:14.712Z,97413.69
2024-04-09T16:23:41.710Z,97414.44
2024-04-09T16:26:11.310Z,97419.91
2024-04-09T16:28:38.301Z,97418.44
2024-04-09T16:31:05.189Z,97423.72
2024-04-09T16:33:32.882Z,97428.97
2024-04-09T16:35:59.673Z,97421.72
2024-04-09T16:38:28.860Z,97421.53
2024-04-09T16:40:57.516Z,97434.75
2024-04-09T16:43:24.166Z,97436.38
2024-04-09T16:45:50.840Z,97445.06
2024-04-09T16:48:17.557Z,97450.81
2024-04-09T16:50:46.661Z,97451.69
2024-04-09T16:53:13.785Z,97455.75
2024-04-09T16:55:40.851Z,97451.06
2024-04-09T16:58:08.652Z,97455.81
2024-04-09T17:00:36.760Z,97458.91
2024-04-09T17:03:04.085Z,97457.72
2024-04-09T17:05:30.852Z,97468.41
2024-04-09T17:07:58.499Z,97467.84
2024-04-09T17:10:25.396Z,97478.47
2024-04-09T17:12:52.012Z,97480.19
2024-04-09T17:15:18.766Z,97481.03
2024-04-09T17:17:45.516Z,97485.63
2024-04-09T17:20:13.126Z,97482.69
2024-04-09T17:22:39.852Z,97484.78
2024-04-09T17:25:09.657Z,97493.97
2024-04-09T17:27:36.536Z,97506.06
2024-04-09T17:30:03.999Z,97509.00
2024-04-09T17:32:34.404Z,97507.84
2024-04-09T17:35:02.080Z,97509.59
2024-04-09T17:37:29.655Z,97520.75
2024-04-09T17:39:56.290Z,97522.25
2024-04-09T17:42:23.862Z,97527.66
2024-04-09T17:44:53.729Z,97516.06
2024-04-09T17:47:21.771Z,97508.88
2024-04-09T17:49:48.966Z,97510.28
2024-04-09T17:52:15.721Z,97516.75
2024-04-09T17:54:42.399Z,97528.13
2024-04-09T17:57:08.962Z,97518.81
2024-04-09T17:59:35.931Z,97520.22
2024-04-09T18:02:02.963Z,97526.25
2024-04-09T18:04:29.717Z,97538.91
2024-04-09T18:06:56.511Z,97540.66
2024-04-09T18:09:23.145Z,97544.28
2024-04-09T18:11:49.863Z,97541.59
2024-04-09T18:14:18.665Z,97544.84
2024-04-09T18:16:48.701Z,97541.44
2024-04-09T18:19:17.180Z,97553.94
2024-04-09T18:21:44.216Z,97565.34
2024-04-09T18:24:13.150Z,97566.25
2024-04-09T18:26:40.361Z,97572.25
2024-04-09T18:29:08.588Z,97583.03
2024-04-09T18:31:35.509Z,97576.22
2024-04-09T18:34:02.209Z,97579.59
2024-04-09T18:36:29.283Z,97595.66
2024-04-09T18:38:56.434Z,97595.19
2024-04-09T18:41:24.531Z,97595.09
2024-04-09T18:46:18.030Z,97607.16
2024-04-09T18:48:44.724Z,97608.41
2024-04-09T18:51:14.880Z,97615.09
2024-04-09T18:53:41.565Z,97619.06
2024-04-09T18:56:08.568Z,97611.91
2024-04-09T18:58:36.258Z,97609.78
2024-04-09T19:01:03.282Z,97616.84
2024-04-09T19:03:30.030Z,97615.81
2024-04-09T19:05:56.714Z,97608.38
2024-04-09T19:08:23.727Z,97608.84
2024-04-09T19:10:50.516Z,97622.69
2024-04-09T19:13:17.122Z,97616.47
2024-04-09T19:15:43.703Z,97623.16
2024-04-09T19:18:10.495Z,97636.97
2024-04-09T19:20:37.404Z,97639.09
2024-04-09T19:23:04.318Z,97630.81
2024-04-09T19:25:30.990Z,97638.16
2024-04-09T19:27:57.610Z,97633.03
2024-04-09T19:30:24.174Z,97637.59
2024-04-09T19:32:51.464Z,97648.69
2024-04-09T19:35:18.251Z,97649.25
2024-04-09T19:37:45.273Z,97645.38
2024-04-09T19:40:13.463Z,97646.44
2024-04-09T19:42:40.236Z,97650.19
2024-04-09T19:45:07.477Z,97657.06
2024-04-09T19:47:34.458Z,97657.06
2024-04-09T19:50:01.537Z,97649.13
2024-04-09T19:52:28.330Z,97647.84
2024-04-09T19:54:54.933Z,97664.94
2024-04-09T19:57:22.063Z,97667.63
2024-04-09T19:59:51.223Z,97663.06
2024-04-09T20:02:23.862Z,97658.22
2024-04-09T20:04:54.295Z,97660.81
2024-04-09T20:07:21.934Z,97665.00
2024-04-09T20:09:50.049Z,97667.72
2024-04-09T20:12:17.395Z,97671.69
2024-04-09T20:14:47.950Z,97665.81
2024-04-09T20:17:14.760Z,97662.91
2024-04-09T20:19:41.472Z,97669.78
2024-04-09T20:22:08.645Z,97669.56
2024-04-09T20:24:35.390Z,97673.25
2024-04-09T20:27:02.160Z,97684.69
2024-04-09T20:29:28.963Z,97682.25
2024-04-09T20:31:55.666Z,97690.16
2024-04-09T20:34:22.542Z,97683.47
2024-04-09T20:36:49.320Z,97693.16
2024-04-09T20:39:25.083Z,97703.09
2024-04-09T20:41:51.808Z,97707.28
2024-04-09T20:44:18.859Z,97708.22
2024-04-09T20:46:45.506Z,97710.22
2024-04-09T20:49:12.304Z,97712.53
2024-04-09T20:51:38.946Z,97718.50
2024-04-09T20:54:05.866Z,97717.31
2024-04-09T20:56:33.466Z,97718.59
2024-04-09T20:59:00.469Z,97719.56
2024-04-09T21:01:27.226Z,97731.25
2024-04-09T21:03:55.393Z,97730.41
2024-04-09T21:06:23.924Z,97726.22
2024-04-09T21:08:50.479Z,97734.53
2024-04-09T21:11:17.166Z,97724.97
2024-04-09T21:13:44.086Z,97726.22
2024-04-09T21:16:11.837Z,97736.13
2024-04-09T21:18:38.540Z,97735.16
2024-04-09T21:21:06.168Z,97743.97
2024-04-09T21:23:32.898Z,97748.41
2024-04-09T21:25:59.492Z,97758.91
2024-04-09T21:28:26.087Z,97757.16
2024-04-09T21:30:52.729Z,97759.34
2024-04-09T21:33:19.752Z,97750.81
2024-04-09T21:35:46.411Z,97762.63
2024-04-09T21:38:13.010Z,97758.00
2024-04-09T21:40:40.020Z,97769.72
2024-04-09T21:43:06.703Z,97766.78
2024-04-09T21:45:33.311Z,97769.72
2024-04-09T21:48:00.132Z,97774.72
2024-04-09T21:50:27.019Z,97781.75
2024-04-09T21:52:53.673Z,97778.84
2024-04-09T21:55:20.276Z,97783.03
2024-04-09T21:57:46.844Z,97784.03
2024-04-09T22:00:21.324Z,97794.22
2024-04-09T22:02:48.650Z,97799.75
2024-04-09T22:05:15.380Z,97798.13
2024-04-09T22:07:43.179Z,97800.84
2024-04-09T22:10:09.881Z,97803.53
2024-04-09T22:12:36.511Z,97796.28
2024-04-09T22:15:03.225Z,97793.97
2024-04-09T22:17:30.016Z,97802.28
2024-04-09T22:19:57.525Z,97801.84
2024-04-09T22:22:24.227Z,97800.41
2024-04-09T22:24:50.884Z,97792.16
2024-04-09T22:27:17.453Z,97797.78
2024-04-09T22:29:44.056Z,97808.34
2024-04-09T22:32:12.121Z,97816.63
2024-04-09T22:34:39.109Z,97816.03
2024-04-09T22:37:05.734Z,97805.69
2024-04-09T22:39:32.385Z,97814.03
2024-04-09T22:41:59.038Z,97812.59
2024-04-09T22:44:25.978Z,97815.00
2024-04-09T22:46:54.798Z,97811.03
2024-04-09T22:49:21.626Z,97813.50
2024-04-09T22:51:48.357Z,97815.16
2024-04-09T22:54:18.070Z,97825.72
2024-04-09T22:56:45.029Z,97837.31
2024-04-09T22:59:11.821Z,97839.56
2024-04-09T23:01:38.489Z,97836.72
2024-04-09T23:04:05.246Z,97834.38
2024-04-09T23:06:31.901Z,97847.59
2024-04-09T23:08:58.450Z,97849.03
2024-04-09T23:11:25.326Z,97849.25
2024-04-09T23:13:51.992Z,97840.50
2024-04-09T23:16:19.997Z,97858.00
2024-04-09T23:18:46.897Z,97852.59
2024-04-09T23:21:13.532Z,97851.00
2024-04-09T23:23:40.237Z,97853.03
2024-04-09T23:26:06.984Z,97844.72
2024-04-09T23:28:33.698Z,97836.72
2024-04-09T23:31:00.276Z,97834.88
2024-04-09T23:33:26.983Z,97837.66
2024-04-09T23:35:53.586Z,97838.03
2024-04-09T23:38:20.171Z,97847.00
2024-04-09T23:40:46.821Z,97855.50
2024-04-09T23:43:13.489Z,97854.91
2024-04-09T23:45:40.124Z,97846.38
2024-04-09T23:48:07.798Z,97859.84
2024-04-09T23:50:34.810Z,97864.22
2024-04-09T23:53:01.583Z,97856.03
2024-04-09T23:55:28.497Z,97848.75
2024-04-09T23:57:55.100Z,97831.75
